createdAt,value
2023-01-29T00:01:57.781Z,28.00
2023-01-29T00:04:24.441Z,27.98
2023-01-29T00:06:50.925Z,20.60
2023-01-29T00:09:17.904Z,27.88
2023-01-29T00:11:44.881Z,25.40
2023-01-29T00:14:11.385Z,29.77
2023-01-29T00:16:37.978Z,28.40
2023-01-29T00:19:04.555Z,31.38
2023-01-29T00:21:32.239Z,26.77
2023-01-29T00:23:59.798Z,28.98
2023-01-29T00:26:27.292Z,26.70
2023-01-29T00:28:54.515Z,28.23
2023-01-29T00:31:23.618Z,28.95
2023-01-29T00:33:51.013Z,27.52
2023-01-29T00:36:19.237Z,26.55
2023-01-29T00:38:58.449Z,28.55
2023-01-29T00:41:48.988Z,20.88
2023-01-29T00:44:34.401Z,27.05
2023-01-29T00:47:01.051Z,27.98
2023-01-29T00:49:27.625Z,18.73
2023-01-29T00:52:12.487Z,20.35
2023-01-29T00:54:39.065Z,27.63
2023-01-29T00:57:05.651Z,26.55
2023-01-29T00:59:32.169Z,28.77
2023-01-29T01:02:17.564Z,26.38
2023-01-29T01:04:44.177Z,28.70
2023-01-29T01:09:56.101Z,20.08
2023-01-29T01:12:23.085Z,27.75
2023-01-29T01:14:49.861Z,20.13
2023-01-29T01:17:16.573Z,22.85
2023-01-29T01:19:43.307Z,27.02
2023-01-29T01:22:10.053Z,28.73
2023-01-29T01:24:37.342Z,27.80
2023-01-29T01:27:05.031Z,29.27
2023-01-29T01:29:31.586Z,27.98
2023-01-29T01:31:58.138Z,28.17
2023-01-29T01:34:26.964Z,28.00
2023-01-29T01:36:54.433Z,28.27
2023-01-29T01:39:20.982Z,27.02
2023-01-29T01:41:47.456Z,29.10
2023-01-29T01:44:52.859Z,26.60
2023-01-29T01:47:40.469Z,28.27
2023-01-29T01:50:33.043Z,33.88
2023-01-29T01:53:13.028Z,29.42
2023-01-29T01:55:45.757Z,28.90
2023-01-29T01:58:18.267Z,27.42
2023-01-29T02:00:45.061Z,29.70
2023-01-29T02:03:31.650Z,29.38
2023-01-29T02:06:18.928Z,28.85
2023-01-29T02:09:11.908Z,28.92
2023-01-29T02:11:38.860Z,28.73
2023-01-29T02:14:05.499Z,18.50
2023-01-29T02:16:35.376Z,27.35
2023-01-29T02:19:08.909Z,20.50
2023-01-29T02:22:00.262Z,28.10
2023-01-29T02:24:48.981Z,26.30
2023-01-29T02:27:21.966Z,30.38
2023-01-29T02:30:03.289Z,29.92
2023-01-29T02:32:54.275Z,23.52
2023-01-29T02:35:32.090Z,28.15
2023-01-29T02:37:58.733Z,15.45
2023-01-29T02:40:41.337Z,18.35
2023-01-29T02:43:14.208Z,27.52
2023-01-29T02:45:50.497Z,31.20
2023-01-29T02:48:23.797Z,30.90
2023-01-29T02:51:00.593Z,22.05
2023-01-29T02:53:53.324Z,26.67
2023-01-29T02:56:34.017Z,28.10
2023-01-29T02:59:10.136Z,23.65
2023-01-29T03:01:45.083Z,30.77
2023-01-29T03:04:17.824Z,28.88
2023-01-29T03:06:54.379Z,31.58
2023-01-29T03:09:30.124Z,26.63
2023-01-29T03:12:19.939Z,31.13
2023-01-29T03:15:09.093Z,28.67
2023-01-29T03:17:45.005Z,23.25
2023-01-29T03:20:17.612Z,18.20
2023-01-29T03:22:50.503Z,21.95
2023-01-29T03:25:38.476Z,23.40
2023-01-29T03:28:26.571Z,30.30
2023-01-29T03:31:18.656Z,31.35
2023-01-29T03:34:16.383Z,30.17
2023-01-29T03:36:57.876Z,21.95
2023-01-29T03:39:28.429Z,21.40
2023-01-29T03:42:01.257Z,22.23
2023-01-29T03:44:40.290Z,25.77
2023-01-29T03:47:32.649Z,22.23
2023-01-29T03:50:02.298Z,19.48
2023-01-29T03:52:45.909Z,30.08
2023-01-29T03:55:33.387Z,33.45
2023-01-29T03:58:18.089Z,31.52
2023-01-29T04:01:23.108Z,33.70
2023-01-29T04:04:12.020Z,20.42
2023-01-29T04:06:42.414Z,24.75
2023-01-29T04:09:22.172Z,20.25
2023-01-29T04:11:55.823Z,31.83
2023-01-29T04:14:23.124Z,32.72
2023-01-29T04:16:55.602Z,33.10
2023-01-29T04:19:40.026Z,24.52
2023-01-29T04:22:14.207Z,20.42
2023-01-29T04:24:42.250Z,21.23
2023-01-29T04:27:36.400Z,32.35
2023-01-29T04:30:31.314Z,31.10
2023-01-29T04:33:13.498Z,32.65
2023-01-29T04:35:42.986Z,21.10
2023-01-29T04:38:37.395Z,22.15
2023-01-29T04:41:18.844Z,34.92
2023-01-29T04:43:54.477Z,34.03
2023-01-29T04:46:41.932Z,36.97
2023-01-29T04:49:35.839Z,33.85
2023-01-29T04:52:16.827Z,28.85
2023-01-29T04:55:17.239Z,36.53
2023-01-29T04:58:03.170Z,37.65
2023-01-29T05:00:39.097Z,28.25
2023-01-29T05:03:09.645Z,36.90
2023-01-29T05:05:36.675Z,37.88
2023-01-29T05:08:04.726Z,27.60
2023-01-29T05:10:31.376Z,39.22
2023-01-29T05:13:06.384Z,40.78
2023-01-29T05:15:39.766Z,41.13
2023-01-29T05:18:09.032Z,31.65
2023-01-29T05:20:41.092Z,22.70
2023-01-29T05:23:19.834Z,39.47
2023-01-29T05:25:47.986Z,37.67
2023-01-29T05:28:17.327Z,40.38
2023-01-29T05:30:46.408Z,40.92
2023-01-29T05:33:21.785Z,40.03
2023-01-29T05:35:49.155Z,24.52
2023-01-29T05:38:16.664Z,39.95
2023-01-29T05:40:43.998Z,42.53
2023-01-29T05:43:16.723Z,33.85
2023-01-29T05:45:43.782Z,41.55
2023-01-29T05:48:10.272Z,40.67
2023-01-29T05:50:36.751Z,40.88
2023-01-29T05:53:03.360Z,30.77
2023-01-29T05:55:29.885Z,41.80
2023-01-29T05:57:56.427Z,42.65
2023-01-29T06:00:23.373Z,45.38
2023-01-29T06:02:50.294Z,41.35
2023-01-29T06:05:16.875Z,45.70
2023-01-29T06:07:45.206Z,41.55
2023-01-29T06:10:14.503Z,42.72
2023-01-29T06:12:42.532Z,43.97
2023-01-29T06:15:10.057Z,40.88
2023-01-29T06:17:36.521Z,41.92
2023-01-29T06:20:04.088Z,43.60
2023-01-29T06:22:30.612Z,43.03
2023-01-29T06:24:57.068Z,43.00
2023-01-29T06:27:23.566Z,44.45
2023-01-29T06:29:50.045Z,28.00
2023-01-29T06:32:16.646Z,34.22
2023-01-29T06:34:43.141Z,44.95
2023-01-29T06:37:09.673Z,29.55
2023-01-29T06:39:36.170Z,43.22
2023-01-29T06:42:02.696Z,26.33
2023-01-29T06:44:29.354Z,41.75
2023-01-29T06:46:55.832Z,44.33
2023-01-29T06:49:22.424Z,41.42
2023-01-29T06:51:48.957Z,32.95
2023-01-29T06:54:15.496Z,45.17
2023-01-29T06:56:42.021Z,43.00
2023-01-29T06:59:08.508Z,44.30
2023-01-29T07:01:36.607Z,43.95
2023-01-29T07:04:03.906Z,42.63
2023-01-29T07:06:31.105Z,44.30
2023-01-29T07:08:57.715Z,45.08
2023-01-29T07:11:24.405Z,46.45
2023-01-29T07:13:50.858Z,44.55
2023-01-29T07:16:19.102Z,44.65
2023-01-29T07:18:45.713Z,36.65
2023-01-29T07:21:12.238Z,41.70
2023-01-29T07:23:38.715Z,44.40
2023-01-29T07:26:06.186Z,42.92
2023-01-29T07:28:37.810Z,44.70
2023-01-29T07:31:05.046Z,42.63
2023-01-29T07:33:31.705Z,46.03
2023-01-29T07:35:58.228Z,45.30
2023-01-29T07:38:24.777Z,45.00
2023-01-29T07:40:54.149Z,43.58
2023-01-29T07:43:20.900Z,44.67
2023-01-29T07:45:47.490Z,43.58
2023-01-29T07:48:14.127Z,42.83
2023-01-29T07:50:41.312Z,46.17
2023-01-29T07:53:13.335Z,33.70
2023-01-29T07:58:06.497Z,43.97
2023-01-29T08:00:33.041Z,46.17
2023-01-29T08:03:16.292Z,47.72
2023-01-29T08:05:43.947Z,36.88
2023-01-29T08:08:10.606Z,42.25
2023-01-29T08:10:38.463Z,40.60
2023-01-29T08:13:06.094Z,43.42
2023-01-29T08:15:32.987Z,41.33
2023-01-29T08:18:01.616Z,41.92
2023-01-29T08:20:28.336Z,41.67
2023-01-29T08:23:06.914Z,42.83
2023-01-29T08:25:34.418Z,42.25
2023-01-29T08:28:01.617Z,43.67
2023-01-29T08:30:30.718Z,43.90
2023-01-29T08:32:57.304Z,28.63
2023-01-29T08:35:24.321Z,42.67
2023-01-29T08:37:59.486Z,27.55
2023-01-29T08:40:27.647Z,42.05
2023-01-29T08:43:02.720Z,41.83
2023-01-29T08:45:30.900Z,41.67
2023-01-29T08:47:57.443Z,30.52
2023-01-29T08:50:24.037Z,42.22
2023-01-29T08:52:50.673Z,40.78
2023-01-29T08:55:17.616Z,39.13
2023-01-29T08:57:44.275Z,39.78
2023-01-29T09:00:11.783Z,28.23
2023-01-29T09:02:38.428Z,40.42
2023-01-29T09:05:05.462Z,37.70
2023-01-29T09:07:32.066Z,37.63
2023-01-29T09:09:58.619Z,38.35
2023-01-29T09:12:25.280Z,30.35
2023-01-29T09:14:51.796Z,25.05
2023-01-29T09:17:18.416Z,34.67
2023-01-29T09:19:44.913Z,37.10
2023-01-29T09:22:12.017Z,36.08
2023-01-29T09:24:38.846Z,36.83
2023-01-29T09:27:06.198Z,35.58
2023-01-29T09:29:34.765Z,35.13
2023-01-29T09:32:03.270Z,37.00
2023-01-29T09:34:29.800Z,35.30
2023-01-29T09:36:56.345Z,31.30
2023-01-29T09:39:22.895Z,36.35
2023-01-29T09:42:03.535Z,29.52
2023-01-29T09:45:17.566Z,35.70
2023-01-29T09:47:44.689Z,32.55
2023-01-29T09:50:20.172Z,25.60
2023-01-29T09:53:26.290Z,34.85
2023-01-29T09:56:08.946Z,23.10
2023-01-29T09:58:38.341Z,33.22
2023-01-29T10:01:26.406Z,35.40
2023-01-29T10:04:22.271Z,31.75
2023-01-29T10:07:01.449Z,35.90
2023-01-29T10:09:57.324Z,25.15
2023-01-29T10:12:38.839Z,32.35
2023-01-29T10:15:14.253Z,22.92
2023-01-29T10:18:11.650Z,18.70
2023-01-29T10:20:52.924Z,18.38
2023-01-29T10:23:30.851Z,23.88
2023-01-29T10:25:58.134Z,27.75
2023-01-29T10:28:48.427Z,31.88
2023-01-29T10:31:25.171Z,31.88
2023-01-29T10:34:02.126Z,33.55
2023-01-29T10:36:49.750Z,30.98
2023-01-29T10:39:18.808Z,25.85
2023-01-29T10:41:45.281Z,31.33
2023-01-29T10:44:39.881Z,28.70
2023-01-29T10:47:44.668Z,23.30
2023-01-29T10:50:40.116Z,30.55
2023-01-29T10:53:24.536Z,28.83
2023-01-29T10:56:21.776Z,29.17
2023-01-29T10:58:59.328Z,31.17
2023-01-29T11:01:26.807Z,29.35
2023-01-29T11:04:02.176Z,29.88
2023-01-29T11:06:31.238Z,22.05
2023-01-29T11:09:16.481Z,31.98
2023-01-29T11:11:54.022Z,29.90
2023-01-29T11:14:22.441Z,28.92
2023-01-29T11:16:49.196Z,19.00
2023-01-29T11:19:16.523Z,18.63
2023-01-29T11:22:01.727Z,31.02
2023-01-29T11:24:28.469Z,28.45
2023-01-29T11:26:58.675Z,28.65
2023-01-29T11:29:45.859Z,30.33
2023-01-29T11:32:24.346Z,28.92
2023-01-29T11:35:06.162Z,18.55
2023-01-29T11:37:37.990Z,28.80
2023-01-29T11:40:19.606Z,28.20
2023-01-29T11:42:47.357Z,20.55
2023-01-29T11:45:19.754Z,27.60
2023-01-29T11:47:50.228Z,27.65
2023-01-29T11:50:25.730Z,26.38
2023-01-29T11:52:52.736Z,17.40
2023-01-29T11:55:26.043Z,27.25
2023-01-29T11:58:04.262Z,28.65
2023-01-29T12:00:36.409Z,29.02
2023-01-29T12:03:19.913Z,28.83
2023-01-29T12:06:27.109Z,18.90
2023-01-29T12:09:01.868Z,28.48
2023-01-29T12:11:33.559Z,30.30
2023-01-29T12:14:02.368Z,29.98
2023-01-29T12:16:44.289Z,28.60
2023-01-29T12:19:29.919Z,29.10
2023-01-29T12:22:08.710Z,27.45
2023-01-29T12:24:52.845Z,29.85
2023-01-29T12:27:36.066Z,29.77
2023-01-29T12:30:22.560Z,31.52
2023-01-29T12:32:51.976Z,31.77
2023-01-29T12:35:35.642Z,23.48
2023-01-29T12:38:28.229Z,23.55
2023-01-29T12:41:32.451Z,30.23
2023-01-29T12:44:31.655Z,32.50
2023-01-29T12:47:00.866Z,31.55
2023-01-29T12:49:35.095Z,20.75
2023-01-29T12:52:11.157Z,19.13
2023-01-29T12:54:39.434Z,33.47
2023-01-29T12:57:15.848Z,32.92
2023-01-29T12:59:58.624Z,34.00
2023-01-29T13:02:48.202Z,35.53
2023-01-29T13:05:34.087Z,34.63
2023-01-29T13:08:08.619Z,30.58
2023-01-29T13:10:41.164Z,26.23
2023-01-29T13:13:32.956Z,34.92
2023-01-29T13:16:01.206Z,35.78
2023-01-29T13:18:50.415Z,34.45
2023-01-29T13:21:20.970Z,38.45
2023-01-29T13:23:53.122Z,35.95
2023-01-29T13:26:21.178Z,39.72
2023-01-29T13:28:49.287Z,39.38
2023-01-29T13:31:37.584Z,39.25
2023-01-29T13:34:24.720Z,41.15
2023-01-29T13:36:54.305Z,37.28
2023-01-29T13:39:35.847Z,38.92
2023-01-29T13:42:14.774Z,20.95
2023-01-29T13:44:41.485Z,38.92
2023-01-29T13:47:11.597Z,40.15
2023-01-29T14:24:33.863Z,46.47
2023-01-29T14:27:00.395Z,46.35
2023-01-29T14:29:35.464Z,45.30
2023-01-29T14:32:20.283Z,44.90
2023-01-29T14:34:52.046Z,45.20
2023-01-29T14:37:36.130Z,33.80
2023-01-29T14:40:11.513Z,29.50
2023-01-29T14:42:45.039Z,42.03
2023-01-29T14:45:29.706Z,42.13
2023-01-29T14:48:11.477Z,42.13
2023-01-29T14:50:45.735Z,40.95
2023-01-29T14:53:51.342Z,39.88
2023-01-29T14:56:20.795Z,42.78
2023-01-29T14:58:56.147Z,39.65
2023-01-29T15:01:32.417Z,43.17
2023-01-29T15:04:07.215Z,40.47
2023-01-29T15:06:49.515Z,40.17
2023-01-29T15:09:49.628Z,40.85
2023-01-29T15:12:29.816Z,41.63
2023-01-29T15:15:07.084Z,41.05
2023-01-29T15:17:49.498Z,41.47
2023-01-29T15:20:31.337Z,39.47
2023-01-29T15:22:58.295Z,43.88
2023-01-29T15:25:25.420Z,39.25
2023-01-29T15:27:54.611Z,37.22
2023-01-29T15:30:32.439Z,40.55
2023-01-29T15:32:59.379Z,42.92
2023-01-29T15:35:37.649Z,38.92
2023-01-29T15:38:06.795Z,39.92
2023-01-29T15:40:34.488Z,39.10
2023-01-29T15:43:00.969Z,38.10
2023-01-29T15:45:32.705Z,40.13
2023-01-29T15:48:08.475Z,40.70
2023-01-29T15:50:39.526Z,36.38
2023-01-29T15:53:12.429Z,24.93
2023-01-29T15:55:40.173Z,43.35
2023-01-29T15:58:13.258Z,37.42
2023-01-29T16:00:39.729Z,35.15
2023-01-29T16:03:15.790Z,36.03
2023-01-29T16:05:42.592Z,36.47
2023-01-29T16:08:13.860Z,35.92
2023-01-29T16:10:42.160Z,37.70
2023-01-29T16:13:22.273Z,24.05
2023-01-29T16:16:00.745Z,35.72
2023-01-29T16:18:35.261Z,33.20
2023-01-29T16:21:31.650Z,32.88
2023-01-29T16:24:07.601Z,33.03
2023-01-29T16:26:37.578Z,35.17
2023-01-29T16:29:09.364Z,35.70
2023-01-29T16:31:37.677Z,34.15
2023-01-29T16:34:14.871Z,33.90
2023-01-29T16:36:46.490Z,36.88
2023-01-29T16:39:23.928Z,33.75
2023-01-29T16:42:12.891Z,33.53
2023-01-29T16:44:40.561Z,33.75
2023-01-29T16:47:20.326Z,33.22
2023-01-29T16:49:51.049Z,32.15
2023-01-29T16:52:19.156Z,38.58
2023-01-29T16:54:45.712Z,33.42
2023-01-29T16:57:18.525Z,34.30
2023-01-29T16:59:46.071Z,38.13
2023-01-29T17:02:41.814Z,35.42
2023-01-29T17:05:17.757Z,33.45
2023-01-29T17:07:46.347Z,30.73
2023-01-29T17:10:19.681Z,30.10
2023-01-29T17:12:54.617Z,31.02
2023-01-29T17:15:34.929Z,33.13
2023-01-29T17:18:01.841Z,31.95
2023-01-29T17:20:30.404Z,32.40
2023-01-29T17:22:56.958Z,32.40
2023-01-29T17:25:23.701Z,32.60
2023-01-29T17:27:52.154Z,31.20
2023-01-29T17:30:26.307Z,31.70
2023-01-29T17:32:52.988Z,31.35
2023-01-29T17:35:20.293Z,31.80
2023-01-29T17:37:47.297Z,30.02
2023-01-29T17:40:34.142Z,33.53
2023-01-29T17:43:00.633Z,32.53
2023-01-29T17:45:27.547Z,30.17
2023-01-29T17:47:54.155Z,33.40
2023-01-29T17:50:30.187Z,32.75
2023-01-29T17:52:56.755Z,31.77
2023-01-29T17:55:23.826Z,31.65
2023-01-29T17:57:50.374Z,31.92
2023-01-29T18:00:20.074Z,32.08
2023-01-29T18:02:47.097Z,33.30
2023-01-29T18:05:16.507Z,18.30
2023-01-29T18:07:45.893Z,32.10
2023-01-29T18:10:21.013Z,30.58
2023-01-29T18:12:47.866Z,33.35
2023-01-29T18:15:14.545Z,31.70
2023-01-29T18:17:41.848Z,29.75
2023-01-29T18:20:26.217Z,30.63
2023-01-29T18:22:53.173Z,30.90
2023-01-29T18:25:20.381Z,29.63
2023-01-29T18:27:47.529Z,31.05
2023-01-29T18:30:14.397Z,31.02
2023-01-29T18:32:41.044Z,31.95
2023-01-29T18:35:08.285Z,32.17
2023-01-29T18:37:35.162Z,31.35
2023-01-29T18:40:01.773Z,31.63
2023-01-29T18:42:31.322Z,33.00
2023-01-29T18:44:57.869Z,31.92
2023-01-29T18:47:25.469Z,34.10
2023-01-29T18:49:52.061Z,35.70
2023-01-29T18:52:18.863Z,35.85
2023-01-29T18:54:45.469Z,34.80
2023-01-29T18:58:24.220Z,36.05
2023-01-29T18:59:58.634Z,35.13
2023-01-29T19:02:25.350Z,36.67
2023-01-29T19:04:51.968Z,36.65
2023-01-29T19:07:18.549Z,37.78
2023-01-29T19:09:46.509Z,37.10
2023-01-29T19:12:13.026Z,36.70
2023-01-29T19:14:39.686Z,38.85
2023-01-29T19:17:06.323Z,36.63
2023-01-29T19:19:33.078Z,36.13
2023-01-29T19:21:59.680Z,38.28
2023-01-29T19:24:27.452Z,35.17
2023-01-29T19:26:54.149Z,35.65
2023-01-29T19:29:20.740Z,38.17
2023-01-29T19:31:47.550Z,38.03
2023-01-29T19:34:14.199Z,36.00
2023-01-29T19:36:40.955Z,38.70
2023-01-29T19:39:07.475Z,38.67
2023-01-29T19:41:34.871Z,39.80
2023-01-29T19:44:01.422Z,38.42
2023-01-29T19:46:30.167Z,39.22
2023-01-29T19:48:58.742Z,37.85
2023-01-29T19:51:27.603Z,37.38
2023-01-29T19:53:55.387Z,38.70
2023-01-29T19:56:21.988Z,40.22
2023-01-29T19:58:48.593Z,42.05
2023-01-29T20:01:18.312Z,39.58
2023-01-29T20:03:48.927Z,37.28
2023-01-29T20:06:18.014Z,39.70
2023-01-29T20:08:47.828Z,38.30
2023-01-29T20:11:19.640Z,39.72
2023-01-29T20:13:48.006Z,38.33
2023-01-29T20:16:14.692Z,26.23
2023-01-29T20:18:41.248Z,24.35
2023-01-29T20:21:10.922Z,40.85
2023-01-29T20:23:41.196Z,39.80
2023-01-29T20:26:11.134Z,37.97
2023-01-29T20:28:38.106Z,41.30
2023-01-29T20:31:06.385Z,39.97
2023-01-29T20:33:33.820Z,40.33
2023-01-29T20:36:03.617Z,42.45
2023-01-29T20:38:31.775Z,41.03
2023-01-29T20:41:12.772Z,42.40
2023-01-29T20:43:39.478Z,41.03
2023-01-29T20:46:06.615Z,42.28
2023-01-29T20:48:33.501Z,41.35
2023-01-29T20:51:05.438Z,43.38
2023-01-29T20:55:58.770Z,42.75
2023-01-29T20:58:25.582Z,41.58
2023-01-29T21:00:52.306Z,29.63
2023-01-29T21:03:18.871Z,41.05
2023-01-29T21:05:45.512Z,42.45
2023-01-29T21:08:12.229Z,38.92
2023-01-29T21:10:38.823Z,41.85
2023-01-29T21:13:05.424Z,42.97
2023-01-29T21:15:32.045Z,40.42
2023-01-29T21:18:02.513Z,39.65
2023-01-29T21:20:29.065Z,39.92
2023-01-29T21:22:55.578Z,40.65
2023-01-29T21:25:23.097Z,44.05
2023-01-29T21:27:50.438Z,41.25
2023-01-29T21:30:18.184Z,40.58
2023-01-29T21:32:44.927Z,42.70
2023-01-29T21:35:11.517Z,41.13
2023-01-29T21:37:38.092Z,41.92
2023-01-29T21:40:06.360Z,42.20
2023-01-29T21:42:51.430Z,41.97
2023-01-29T21:45:18.673Z,43.30
2023-01-29T21:47:45.266Z,42.85
2023-01-29T21:50:12.315Z,42.15
2023-01-29T21:52:38.850Z,41.88
2023-01-29T21:55:06.137Z,44.60
2023-01-29T21:57:32.719Z,42.55
2023-01-29T21:59:59.369Z,44.90
2023-01-29T22:02:27.537Z,43.70
2023-01-29T22:05:05.306Z,44.85
2023-01-29T22:07:43.116Z,46.92
2023-01-29T22:10:10.397Z,45.25
2023-01-29T22:12:37.327Z,43.20
2023-01-29T22:15:04.821Z,48.38
2023-01-29T22:17:31.372Z,48.67
2023-01-29T22:19:57.919Z,44.20
2023-01-29T22:22:24.393Z,46.33
2023-01-29T22:24:52.482Z,45.03
2023-01-29T22:27:19.038Z,47.78
2023-01-29T22:29:45.581Z,45.92
2023-01-29T22:32:13.187Z,45.13
2023-01-29T22:34:39.809Z,46.22
2023-01-29T22:37:06.399Z,48.63
2023-01-29T22:39:32.943Z,49.17
2023-01-29T22:41:59.485Z,51.53
2023-01-29T22:44:26.021Z,48.33
2023-01-29T22:46:52.573Z,46.88
2023-01-29T22:49:19.499Z,47.38
2023-01-29T22:51:47.415Z,48.95
2023-01-29T22:54:15.462Z,50.22
2023-01-29T22:56:42.024Z,53.63
2023-01-29T22:59:09.988Z,52.67
2023-01-29T23:01:36.613Z,50.75
2023-01-29T23:04:03.140Z,51.67
2023-01-29T23:06:29.706Z,53.17
2023-01-29T23:08:56.247Z,50.05
2023-01-29T23:11:23.584Z,51.15
2023-01-29T23:13:52.715Z,48.47
2023-01-29T23:16:21.701Z,51.95
2023-01-29T23:18:53.030Z,53.75
2023-01-29T23:21:21.248Z,21.10
2023-01-29T23:23:48.451Z,51.80
2023-01-29T23:26:33.871Z,49.60
2023-01-29T23:29:00.641Z,54.13
2023-01-29T23:31:27.264Z,56.10
2023-01-29T23:33:53.822Z,54.13
2023-01-29T23:36:20.395Z,53.38
2023-01-29T23:38:46.957Z,55.92
2023-01-29T23:41:13.767Z,57.05
2023-01-29T23:43:40.379Z,54.33
2023-01-29T23:46:07.190Z,55.70
2023-01-29T23:48:33.770Z,60.92
2023-01-29T23:51:00.338Z,56.30
2023-01-29T23:53:27.070Z,53.88
2023-01-29T23:55:58.786Z,55.60
2023-01-29T23:58:26.106Z,58.75
